sensor_id;sensor_type;location;lat;lon;timestamp;P1;durP1;ratioP1;P2;durP2;ratioP2
20884;SDS011;10602;48.000;9.654;2023-04-06T00:02:11;13.17;;;8.97;;
20884;SDS011;10602;48.000;9.654;2023-04-06T00:04:39;10.40;;;8.00;;
20884;SDS011;10602;48.000;9.654;2023-04-06T00:07:06;11.23;;;7.67;;
20884;SDS011;10602;48.000;9.654;2023-04-06T00:09:34;10.63;;;8.23;;
20884;SDS011;10602;48.000;9.654;2023-04-06T00:12:02;11.73;;;8.13;;
20884;SDS011;10602;48.000;9.654;2023-04-06T00:14:29;9.83;;;8.50;;
20884;SDS011;10602;48.000;9.654;2023-04-06T00:16:57;9.03;;;6.23;;
20884;SDS011;10602;48.000;9.654;2023-04-06T00:19:24;8.40;;;6.77;;
20884;SDS011;10602;48.000;9.654;2023-04-06T00:21:52;8.03;;;7.23;;
20884;SDS011;10602;48.000;9.654;2023-04-06T00:24:19;9.77;;;7.60;;
20884;SDS011;10602;48.000;9.654;2023-04-06T00:26:48;10.50;;;7.80;;
20884;SDS011;10602;48.000;9.654;2023-04-06T00:29:15;12.00;;;9.17;;
20884;SDS011;10602;48.000;9.654;2023-04-06T00:31:44;11.07;;;7.73;;
20884;SDS011;10602;48.000;9.654;2023-04-06T00:34:12;9.53;;;8.57;;
20884;SDS011;10602;48.000;9.654;2023-04-06T00:36:44;10.73;;;7.90;;
20884;SDS011;10602;48.000;9.654;2023-04-06T00:39:12;10.80;;;6.93;;
20884;SDS011;10602;48.000;9.654;2023-04-06T00:41:44;8.60;;;6.80;;
20884;SDS011;10602;48.000;9.654;2023-04-06T00:44:12;8.60;;;6.87;;
20884;SDS011;10602;48.000;9.654;2023-04-06T00:46:39;8.43;;;7.13;;
20884;SDS011;10602;48.000;9.654;2023-04-06T00:49:08;9.33;;;7.17;;
20884;SDS011;10602;48.000;9.654;2023-04-06T00:51:37;9.80;;;7.33;;
20884;SDS011;10602;48.000;9.654;2023-04-06T00:54:05;9.33;;;7.20;;
20884;SDS011;10602;48.000;9.654;2023-04-06T00:56:34;9.13;;;7.97;;
20884;SDS011;10602;48.000;9.654;2023-04-06T00:59:04;9.73;;;7.90;;
20884;SDS011;10602;48.000;9.654;2023-04-06T01:01:31;11.37;;;7.63;;
20884;SDS011;10602;48.000;9.654;2023-04-06T01:03:58;11.47;;;8.43;;
20884;SDS011;10602;48.000;9.654;2023-04-06T01:06:28;10.90;;;8.17;;
20884;SDS011;10602;48.000;9.654;2023-04-06T01:08:55;8.63;;;7.70;;
20884;SDS011;10602;48.000;9.654;2023-04-06T01:11:23;9.93;;;7.20;;
20884;SDS011;10602;48.000;9.654;2023-04-06T01:13:52;11.57;;;8.30;;
20884;SDS011;10602;48.000;9.654;2023-04-06T01:16:19;9.07;;;7.57;;
20884;SDS011;10602;48.000;9.654;2023-04-06T01:18:47;9.60;;;8.27;;
20884;SDS011;10602;48.000;9.654;2023-04-06T01:21:15;10.70;;;8.17;;
20884;SDS011;10602;48.000;9.654;2023-04-06T01:23:44;9.83;;;8.00;;
20884;SDS011;10602;48.000;9.654;2023-04-06T01:26:12;9.77;;;8.17;;
20884;SDS011;10602;48.000;9.654;2023-04-06T01:28:40;9.57;;;7.60;;
20884;SDS011;10602;48.000;9.654;2023-04-06T01:31:08;9.27;;;7.87;;
20884;SDS011;10602;48.000;9.654;2023-04-06T01:33:36;9.50;;;7.20;;
20884;SDS011;10602;48.000;9.654;2023-04-06T01:36:04;11.87;;;8.20;;
20884;SDS011;10602;48.000;9.654;2023-04-06T01:38:31;10.40;;;8.10;;
20884;SDS011;10602;48.000;9.654;2023-04-06T01:41:00;9.77;;;8.20;;
20884;SDS011;10602;48.000;9.654;2023-04-06T01:43:28;10.57;;;8.30;;
20884;SDS011;10602;48.000;9.654;2023-04-06T01:45:55;10.40;;;8.17;;
20884;SDS011;10602;48.000;9.654;2023-04-06T01:48:23;11.97;;;8.60;;
20884;SDS011;10602;48.000;9.654;2023-04-06T01:50:50;10.07;;;7.43;;
20884;SDS011;10602;48.000;9.654;2023-04-06T01:53:18;11.63;;;7.73;;
20884;SDS011;10602;48.000;9.654;2023-04-06T01:55:46;9.93;;;7.53;;
20884;SDS011;10602;48.000;9.654;2023-04-06T01:58:13;8.80;;;7.20;;
20884;SDS011;10602;48.000;9.654;2023-04-06T02:00:41;10.63;;;7.47;;
20884;SDS011;10602;48.000;9.654;2023-04-06T02:03:08;7.73;;;6.80;;
20884;SDS011;10602;48.000;9.654;2023-04-06T02:05:36;9.20;;;7.00;;
20884;SDS011;10602;48.000;9.654;2023-04-06T02:08:06;10.00;;;7.27;;
20884;SDS011;10602;48.000;9.654;2023-04-06T02:10:34;8.90;;;7.40;;
20884;SDS011;10602;48.000;9.654;2023-04-06T02:13:02;10.03;;;7.93;;
20884;SDS011;10602;48.000;9.654;2023-04-06T02:15:29;9.80;;;7.23;;
20884;SDS011;10602;48.000;9.654;2023-04-06T02:17:57;10.10;;;7.80;;
20884;SDS011;10602;48.000;9.654;2023-04-06T02:20:25;10.00;;;7.77;;
20884;SDS011;10602;48.000;9.654;2023-04-06T02:22:53;11.00;;;7.87;;
20884;SDS011;10602;48.000;9.654;2023-04-06T02:25:22;9.80;;;7.53;;
20884;SDS011;10602;48.000;9.654;2023-04-06T02:27:49;10.20;;;7.57;;
20884;SDS011;10602;48.000;9.654;2023-04-06T02:30:17;12.70;;;8.80;;
20884;SDS011;10602;48.000;9.654;2023-04-06T02:32:45;10.83;;;7.87;;
20884;SDS011;10602;48.000;9.654;2023-04-06T02:35:12;10.73;;;7.70;;
20884;SDS011;10602;48.000;9.654;2023-04-06T02:37:40;10.67;;;7.27;;
20884;SDS011;10602;48.000;9.654;2023-04-06T02:40:08;11.50;;;7.87;;
20884;SDS011;10602;48.000;9.654;2023-04-06T02:42:36;11.20;;;7.97;;
20884;SDS011;10602;48.000;9.654;2023-04-06T02:45:03;9.33;;;8.00;;
20884;SDS011;10602;48.000;9.654;2023-04-06T02:47:32;10.93;;;8.03;;
20884;SDS011;10602;48.000;9.654;2023-04-06T02:50:00;9.50;;;7.73;;
20884;SDS011;10602;48.000;9.654;2023-04-06T02:52:29;17.37;;;11.37;;
20884;SDS011;10602;48.000;9.654;2023-04-06T02:54:56;17.00;;;10.17;;
20884;SDS011;10602;48.000;9.654;2023-04-06T02:57:24;12.83;;;9.17;;
20884;SDS011;10602;48.000;9.654;2023-04-06T02:59:51;11.53;;;9.07;;
20884;SDS011;10602;48.000;9.654;2023-04-06T03:02:18;10.53;;;8.00;;
20884;SDS011;10602;48.000;9.654;2023-04-06T03:04:46;13.33;;;9.30;;
20884;SDS011;10602;48.000;9.654;2023-04-06T03:07:14;12.87;;;7.57;;
20884;SDS011;10602;48.000;9.654;2023-04-06T03:09:41;12.40;;;8.73;;
20884;SDS011;10602;48.000;9.654;2023-04-06T03:12:09;12.47;;;8.47;;
20884;SDS011;10602;48.000;9.654;2023-04-06T03:14:38;12.67;;;8.20;;
20884;SDS011;10602;48.000;9.654;2023-04-06T03:17:05;10.63;;;7.67;;
20884;SDS011;10602;48.000;9.654;2023-04-06T03:19:33;10.63;;;8.27;;
20884;SDS011;10602;48.000;9.654;2023-04-06T03:22:01;11.63;;;8.73;;
20884;SDS011;10602;48.000;9.654;2023-04-06T03:24:28;10.20;;;7.57;;
20884;SDS011;10602;48.000;9.654;2023-04-06T03:26:56;12.37;;;8.13;;
20884;SDS011;10602;48.000;9.654;2023-04-06T03:29:23;11.90;;;8.83;;
20884;SDS011;10602;48.000;9.654;2023-04-06T03:31:51;10.07;;;8.30;;
20884;SDS011;10602;48.000;9.654;2023-04-06T03:34:18;12.87;;;7.60;;
20884;SDS011;10602;48.000;9.654;2023-04-06T03:36:46;9.90;;;7.87;;
20884;SDS011;10602;48.000;9.654;2023-04-06T03:39:13;10.57;;;8.10;;
20884;SDS011;10602;48.000;9.654;2023-04-06T03:41:41;11.17;;;8.20;;
20884;SDS011;10602;48.000;9.654;2023-04-06T03:44:10;12.10;;;8.50;;
20884;SDS011;10602;48.000;9.654;2023-04-06T03:46:37;9.90;;;7.53;;
20884;SDS011;10602;48.000;9.654;2023-04-06T03:49:05;10.90;;;8.50;;
20884;SDS011;10602;48.000;9.654;2023-04-06T03:51:32;12.47;;;8.50;;
20884;SDS011;10602;48.000;9.654;2023-04-06T03:54:00;10.27;;;8.70;;
20884;SDS011;10602;48.000;9.654;2023-04-06T03:56:27;11.17;;;8.43;;
20884;SDS011;10602;48.000;9.654;2023-04-06T03:58:55;10.77;;;8.27;;
20884;SDS011;10602;48.000;9.654;2023-04-06T04:01:23;9.80;;;8.33;;
20884;SDS011;10602;48.000;9.654;2023-04-06T04:03:50;11.07;;;8.50;;
20884;SDS011;10602;48.000;9.654;2023-04-06T04:06:18;12.93;;;8.90;;
20884;SDS011;10602;48.000;9.654;2023-04-06T04:08:45;13.20;;;9.13;;
20884;SDS011;10602;48.000;9.654;2023-04-06T04:11:13;11.60;;;8.23;;
20884;SDS011;10602;48.000;9.654;2023-04-06T04:13:41;14.10;;;9.80;;
20884;SDS011;10602;48.000;9.654;2023-04-06T04:16:09;11.67;;;8.57;;
20884;SDS011;10602;48.000;9.654;2023-04-06T04:18:36;12.27;;;8.83;;
20884;SDS011;10602;48.000;9.654;2023-04-06T04:21:04;15.80;;;9.83;;
20884;SDS011;10602;48.000;9.654;2023-04-06T04:23:32;13.60;;;10.37;;
20884;SDS011;10602;48.000;9.654;2023-04-06T04:25:59;13.77;;;9.17;;
20884;SDS011;10602;48.000;9.654;2023-04-06T04:28:27;13.53;;;9.80;;
20884;SDS011;10602;48.000;9.654;2023-04-06T04:30:54;11.80;;;8.40;;
20884;SDS011;10602;48.000;9.654;2023-04-06T04:33:22;11.70;;;8.87;;
20884;SDS011;10602;48.000;9.654;2023-04-06T04:35:49;12.13;;;7.90;;
20884;SDS011;10602;48.000;9.654;2023-04-06T04:38:17;10.37;;;7.53;;
20884;SDS011;10602;48.000;9.654;2023-04-06T04:40:45;11.87;;;8.43;;
20884;SDS011;10602;48.000;9.654;2023-04-06T04:43:12;14.03;;;8.37;;
20884;SDS011;10602;48.000;9.654;2023-04-06T04:45:40;11.83;;;7.97;;
20884;SDS011;10602;48.000;9.654;2023-04-06T04:48:08;12.87;;;8.80;;
20884;SDS011;10602;48.000;9.654;2023-04-06T04:50:35;12.50;;;9.23;;
20884;SDS011;10602;48.000;9.654;2023-04-06T04:53:03;10.87;;;7.70;;
20884;SDS011;10602;48.000;9.654;2023-04-06T04:55:33;13.43;;;8.93;;
20884;SDS011;10602;48.000;9.654;2023-04-06T04:58:00;12.97;;;9.20;;
20884;SDS011;10602;48.000;9.654;2023-04-06T05:00:28;12.37;;;9.17;;
20884;SDS011;10602;48.000;9.654;2023-04-06T05:02:56;14.07;;;8.27;;
20884;SDS011;10602;48.000;9.654;2023-04-06T05:05:23;12.40;;;8.70;;
20884;SDS011;10602;48.000;9.654;2023-04-06T05:07:51;13.50;;;8.73;;
20884;SDS011;10602;48.000;9.654;2023-04-06T05:10:18;12.30;;;8.37;;
20884;SDS011;10602;48.000;9.654;2023-04-06T05:12:46;12.73;;;9.10;;
20884;SDS011;10602;48.000;9.654;2023-04-06T05:15:13;10.97;;;8.67;;
20884;SDS011;10602;48.000;9.654;2023-04-06T05:17:41;11.60;;;8.80;;
20884;SDS011;10602;48.000;9.654;2023-04-06T05:20:09;11.67;;;8.80;;
20884;SDS011;10602;48.000;9.654;2023-04-06T05:22:37;10.73;;;7.87;;
20884;SDS011;10602;48.000;9.654;2023-04-06T05:25:04;12.03;;;8.53;;
20884;SDS011;10602;48.000;9.654;2023-04-06T05:27:32;12.73;;;8.30;;
20884;SDS011;10602;48.000;9.654;2023-04-06T05:29:59;11.93;;;7.67;;
20884;SDS011;10602;48.000;9.654;2023-04-06T05:32:27;9.33;;;7.77;;
20884;SDS011;10602;48.000;9.654;2023-04-06T05:34:55;15.30;;;10.00;;
20884;SDS011;10602;48.000;9.654;2023-04-06T05:37:24;17.27;;;11.93;;
20884;SDS011;10602;48.000;9.654;2023-04-06T05:39:56;14.03;;;9.53;;
20884;SDS011;10602;48.000;9.654;2023-04-06T05:42:27;12.00;;;9.73;;
20884;SDS011;10602;48.000;9.654;2023-04-06T05:44:58;11.13;;;8.50;;
20884;SDS011;10602;48.000;9.654;2023-04-06T05:47:25;13.03;;;9.03;;
20884;SDS011;10602;48.000;9.654;2023-04-06T05:49:53;15.87;;;10.60;;
20884;SDS011;10602;48.000;9.654;2023-04-06T05:52:20;19.67;;;12.67;;
20884;SDS011;10602;48.000;9.654;2023-04-06T05:54:48;16.43;;;11.57;;
20884;SDS011;10602;48.000;9.654;2023-04-06T05:57:16;19.50;;;12.03;;
20884;SDS011;10602;48.000;9.654;2023-04-06T05:59:43;17.20;;;13.10;;
20884;SDS011;10602;48.000;9.654;2023-04-06T06:02:11;16.63;;;11.70;;
20884;SDS011;10602;48.000;9.654;2023-04-06T06:04:39;16.10;;;11.17;;
20884;SDS011;10602;48.000;9.654;2023-04-06T06:07:07;17.50;;;12.50;;
20884;SDS011;10602;48.000;9.654;2023-04-06T06:09:34;18.83;;;12.10;;
20884;SDS011;10602;48.000;9.654;2023-04-06T06:12:07;16.47;;;12.13;;
20884;SDS011;10602;48.000;9.654;2023-04-06T06:14:37;18.70;;;13.03;;
20884;SDS011;10602;48.000;9.654;2023-04-06T06:17:04;18.27;;;12.37;;
20884;SDS011;10602;48.000;9.654;2023-04-06T06:19:32;15.33;;;11.20;;
20884;SDS011;10602;48.000;9.654;2023-04-06T06:22:00;16.33;;;12.03;;
20884;SDS011;10602;48.000;9.654;2023-04-06T06:24:28;18.43;;;11.77;;
20884;SDS011;10602;48.000;9.654;2023-04-06T06:27:26;16.50;;;11.00;;
20884;SDS011;10602;48.000;9.654;2023-04-06T06:30:03;15.53;;;12.33;;
20884;SDS011;10602;48.000;9.654;2023-04-06T07:01:03;11.80;;;9.97;;
20884;SDS011;10602;48.000;9.654;2023-04-06T07:03:32;11.30;;;9.37;;
20884;SDS011;10602;48.000;9.654;2023-04-06T07:05:59;12.00;;;9.30;;
20884;SDS011;10602;48.000;9.654;2023-04-06T07:08:27;11.97;;;9.33;;
20884;SDS011;10602;48.000;9.654;2023-04-06T07:10:55;12.27;;;9.53;;
20884;SDS011;10602;48.000;9.654;2023-04-06T07:13:22;12.63;;;9.47;;
20884;SDS011;10602;48.000;9.654;2023-04-06T07:15:52;11.63;;;10.43;;
20884;SDS011;10602;48.000;9.654;2023-04-06T07:18:20;10.63;;;9.53;;
20884;SDS011;10602;48.000;9.654;2023-04-06T07:20:49;12.13;;;9.43;;
20884;SDS011;10602;48.000;9.654;2023-04-06T07:23:18;10.50;;;8.37;;
20884;SDS011;10602;48.000;9.654;2023-04-06T07:25:46;11.97;;;8.47;;
20884;SDS011;10602;48.000;9.654;2023-04-06T07:28:13;11.90;;;9.30;;
20884;SDS011;10602;48.000;9.654;2023-04-06T07:30:42;12.20;;;9.17;;
20884;SDS011;10602;48.000;9.654;2023-04-06T07:33:09;11.57;;;10.17;;
20884;SDS011;10602;48.000;9.654;2023-04-06T07:35:37;10.83;;;9.17;;
20884;SDS011;10602;48.000;9.654;2023-04-06T07:38:05;11.63;;;9.00;;
20884;SDS011;10602;48.000;9.654;2023-04-06T07:40:32;11.23;;;8.90;;
20884;SDS011;10602;48.000;9.654;2023-04-06T07:43:00;10.63;;;8.60;;
20884;SDS011;10602;48.000;9.654;2023-04-06T07:45:28;11.50;;;9.07;;
20884;SDS011;10602;48.000;9.654;2023-04-06T07:47:55;10.53;;;8.33;;
20884;SDS011;10602;48.000;9.654;2023-04-06T07:50:23;10.37;;;8.67;;
20884;SDS011;10602;48.000;9.654;2023-04-06T07:52:52;9.47;;;7.77;;
20884;SDS011;10602;48.000;9.654;2023-04-06T07:55:31;11.00;;;8.57;;
20884;SDS011;10602;48.000;9.654;2023-04-06T07:57:59;12.67;;;11.40;;
20884;SDS011;10602;48.000;9.654;2023-04-06T08:00:26;11.60;;;8.27;;
20884;SDS011;10602;48.000;9.654;2023-04-06T08:02:54;11.07;;;8.43;;
20884;SDS011;10602;48.000;9.654;2023-04-06T08:05:21;10.93;;;9.43;;
20884;SDS011;10602;48.000;9.654;2023-04-06T08:07:50;9.47;;;8.20;;
20884;SDS011;10602;48.000;9.654;2023-04-06T08:10:19;12.33;;;8.23;;
20884;SDS011;10602;48.000;9.654;2023-04-06T08:12:47;10.07;;;8.40;;
20884;SDS011;10602;48.000;9.654;2023-04-06T08:15:15;12.77;;;7.90;;
20884;SDS011;10602;48.000;9.654;2023-04-06T08:17:43;9.50;;;8.07;;
20884;SDS011;10602;48.000;9.654;2023-04-06T08:20:11;10.83;;;8.50;;
20884;SDS011;10602;48.000;9.654;2023-04-06T08:22:39;8.83;;;7.93;;
20884;SDS011;10602;48.000;9.654;2023-04-06T08:25:06;10.23;;;8.13;;
20884;SDS011;10602;48.000;9.654;2023-04-06T08:27:34;10.07;;;8.23;;
20884;SDS011;10602;48.000;9.654;2023-04-06T08:30:01;9.67;;;8.03;;
20884;SDS011;10602;48.000;9.654;2023-04-06T08:32:29;9.77;;;7.80;;
20884;SDS011;10602;48.000;9.654;2023-04-06T08:34:57;10.17;;;8.33;;
20884;SDS011;10602;48.000;9.654;2023-04-06T08:37:24;9.73;;;8.30;;
20884;SDS011;10602;48.000;9.654;2023-04-06T08:39:52;8.87;;;7.97;;
20884;SDS011;10602;48.000;9.654;2023-04-06T08:42:20;8.77;;;7.67;;
20884;SDS011;10602;48.000;9.654;2023-04-06T08:44:51;8.37;;;7.23;;
20884;SDS011;10602;48.000;9.654;2023-04-06T08:47:19;9.33;;;8.17;;
20884;SDS011;10602;48.000;9.654;2023-04-06T08:49:46;9.23;;;7.60;;
20884;SDS011;10602;48.000;9.654;2023-04-06T08:52:15;10.17;;;7.80;;
20884;SDS011;10602;48.000;9.654;2023-04-06T08:54:45;9.10;;;8.10;;
20884;SDS011;10602;48.000;9.654;2023-04-06T08:57:13;9.10;;;8.13;;
20884;SDS011;10602;48.000;9.654;2023-04-06T08:59:45;8.10;;;7.30;;
20884;SDS011;10602;48.000;9.654;2023-04-06T09:02:15;9.97;;;7.20;;
20884;SDS011;10602;48.000;9.654;2023-04-06T09:04:52;8.50;;;7.37;;
20884;SDS011;10602;48.000;9.654;2023-04-06T09:07:17;8.13;;;7.33;;
20884;SDS011;10602;48.000;9.654;2023-04-06T09:09:45;8.97;;;7.50;;
20884;SDS011;10602;48.000;9.654;2023-04-06T09:12:26;8.40;;;7.43;;
20884;SDS011;10602;48.000;9.654;2023-04-06T09:14:55;8.57;;;7.77;;
20884;SDS011;10602;48.000;9.654;2023-04-06T09:17:24;8.37;;;7.27;;
20884;SDS011;10602;48.000;9.654;2023-04-06T09:20:00;8.40;;;7.60;;
20884;SDS011;10602;48.000;9.654;2023-04-06T09:22:35;8.53;;;7.67;;
20884;SDS011;10602;48.000;9.654;2023-04-06T09:25:08;8.73;;;7.63;;
20884;SDS011;10602;48.000;9.654;2023-04-06T09:27:38;7.90;;;7.20;;
20884;SDS011;10602;48.000;9.654;2023-04-06T09:30:07;8.60;;;7.43;;
20884;SDS011;10602;48.000;9.654;2023-04-06T09:32:48;8.10;;;7.30;;
20884;SDS011;10602;48.000;9.654;2023-04-06T09:35:16;8.00;;;7.20;;
20884;SDS011;10602;48.000;9.654;2023-04-06T09:37:51;8.27;;;7.43;;
20884;SDS011;10602;48.000;9.654;2023-04-06T09:40:17;8.87;;;7.60;;
20884;SDS011;10602;48.000;9.654;2023-04-06T09:42:47;8.03;;;6.83;;
20884;SDS011;10602;48.000;9.654;2023-04-06T09:45:20;7.87;;;6.90;;
20884;SDS011;10602;48.000;9.654;2023-04-06T09:47:47;7.77;;;7.03;;
20884;SDS011;10602;48.000;9.654;2023-04-06T09:50:16;6.97;;;6.27;;
20884;SDS011;10602;48.000;9.654;2023-04-06T09:52:50;7.37;;;6.43;;
20884;SDS011;10602;48.000;9.654;2023-04-06T09:55:30;7.67;;;6.90;;
20884;SDS011;10602;48.000;9.654;2023-04-06T09:58:00;7.40;;;6.70;;
20884;SDS011;10602;48.000;9.654;2023-04-06T10:00:33;8.97;;;7.00;;
20884;SDS011;10602;48.000;9.654;2023-04-06T10:03:35;7.17;;;6.47;;
20884;SDS011;10602;48.000;9.654;2023-04-06T10:06:13;7.63;;;6.87;;
20884;SDS011;10602;48.000;9.654;2023-04-06T10:08:39;7.53;;;6.67;;
20884;SDS011;10602;48.000;9.654;2023-04-06T10:11:09;7.90;;;7.10;;
20884;SDS011;10602;48.000;9.654;2023-04-06T10:13:38;7.40;;;6.60;;
20884;SDS011;10602;48.000;9.654;2023-04-06T10:16:05;8.37;;;7.00;;
20884;SDS011;10602;48.000;9.654;2023-04-06T10:18:34;7.23;;;6.53;;
20884;SDS011;10602;48.000;9.654;2023-04-06T10:21:06;7.87;;;6.83;;
20884;SDS011;10602;48.000;9.654;2023-04-06T10:23:52;7.77;;;6.77;;
20884;SDS011;10602;48.000;9.654;2023-04-06T10:26:16;8.30;;;6.80;;
20884;SDS011;10602;48.000;9.654;2023-04-06T10:28:47;7.53;;;6.83;;
20884;SDS011;10602;48.000;9.654;2023-04-06T10:31:23;8.27;;;7.30;;
20884;SDS011;10602;48.000;9.654;2023-04-06T10:33:58;7.67;;;6.97;;
20884;SDS011;10602;48.000;9.654;2023-04-06T10:36:32;7.70;;;7.00;;
20884;SDS011;10602;48.000;9.654;2023-04-06T10:39:06;9.30;;;7.80;;
20884;SDS011;10602;48.000;9.654;2023-04-06T10:41:33;7.57;;;6.87;;
20884;SDS011;10602;48.000;9.654;2023-04-06T10:44:02;9.53;;;7.47;;
20884;SDS011;10602;48.000;9.654;2023-04-06T10:46:30;8.23;;;7.03;;
20884;SDS011;10602;48.000;9.654;2023-04-06T10:49:21;8.23;;;6.70;;
20884;SDS011;10602;48.000;9.654;2023-04-06T10:51:38;6.90;;;6.20;;
20884;SDS011;10602;48.000;9.654;2023-04-06T10:54:06;6.93;;;6.20;;
20884;SDS011;10602;48.000;9.654;2023-04-06T10:56:36;7.00;;;6.27;;
20884;SDS011;10602;48.000;9.654;2023-04-06T10:59:05;7.17;;;6.33;;
20884;SDS011;10602;48.000;9.654;2023-04-06T11:01:33;6.60;;;6.00;;
20884;SDS011;10602;48.000;9.654;2023-04-06T11:04:01;7.33;;;6.63;;
20884;SDS011;10602;48.000;9.654;2023-04-06T11:06:29;7.00;;;6.27;;
20884;SDS011;10602;48.000;9.654;2023-04-06T11:08:58;7.40;;;6.70;;
20884;SDS011;10602;48.000;9.654;2023-04-06T11:11:26;6.50;;;5.80;;
20884;SDS011;10602;48.000;9.654;2023-04-06T11:13:55;7.37;;;6.00;;
20884;SDS011;10602;48.000;9.654;2023-04-06T11:16:24;6.67;;;6.07;;
20884;SDS011;10602;48.000;9.654;2023-04-06T11:18:54;6.00;;;5.40;;
20884;SDS011;10602;48.000;9.654;2023-04-06T11:21:33;6.20;;;5.60;;
20884;SDS011;10602;48.000;9.654;2023-04-06T11:24:10;6.70;;;6.00;;
20884;SDS011;10602;48.000;9.654;2023-04-06T11:29:27;5.40;;;4.90;;
20884;SDS011;10602;48.000;9.654;2023-04-06T11:31:59;4.93;;;4.50;;
20884;SDS011;10602;48.000;9.654;2023-04-06T11:34:28;5.40;;;4.77;;
20884;SDS011;10602;48.000;9.654;2023-04-06T11:36:58;5.20;;;4.70;;
20884;SDS011;10602;48.000;9.654;2023-04-06T11:39:28;4.60;;;4.20;;
20884;SDS011;10602;48.000;9.654;2023-04-06T11:41:59;5.80;;;5.20;;
20884;SDS011;10602;48.000;9.654;2023-04-06T11:44:29;5.53;;;5.03;;
20884;SDS011;10602;48.000;9.654;2023-04-06T11:47:06;5.77;;;5.23;;
20884;SDS011;10602;48.000;9.654;2023-04-06T11:49:36;5.37;;;4.80;;
20884;SDS011;10602;48.000;9.654;2023-04-06T11:52:13;4.60;;;4.20;;
20884;SDS011;10602;48.000;9.654;2023-04-06T11:54:43;5.47;;;4.27;;
20884;SDS011;10602;48.000;9.654;2023-04-06T11:57:10;4.90;;;4.40;;
20884;SDS011;10602;48.000;9.654;2023-04-06T11:59:38;5.10;;;4.60;;
20884;SDS011;10602;48.000;9.654;2023-04-06T12:02:06;5.60;;;5.00;;
20884;SDS011;10602;48.000;9.654;2023-04-06T12:04:33;4.63;;;4.00;;
20884;SDS011;10602;48.000;9.654;2023-04-06T12:07:01;5.43;;;4.30;;
20884;SDS011;10602;48.000;9.654;2023-04-06T12:09:30;4.93;;;4.23;;
20884;SDS011;10602;48.000;9.654;2023-04-06T12:12:00;5.87;;;5.23;;
20884;SDS011;10602;48.000;9.654;2023-04-06T12:14:29;5.80;;;4.67;;
20884;SDS011;10602;48.000;9.654;2023-04-06T12:16:57;6.07;;;5.47;;
20884;SDS011;10602;48.000;9.654;2023-04-06T12:19:25;5.50;;;5.00;;
20884;SDS011;10602;48.000;9.654;2023-04-06T12:21:55;5.13;;;4.70;;
20884;SDS011;10602;48.000;9.654;2023-04-06T12:24:24;6.27;;;5.33;;
20884;SDS011;10602;48.000;9.654;2023-04-06T12:26:53;6.60;;;5.90;;
20884;SDS011;10602;48.000;9.654;2023-04-06T12:29:20;5.30;;;4.80;;
20884;SDS011;10602;48.000;9.654;2023-04-06T12:31:48;4.93;;;4.47;;
20884;SDS011;10602;48.000;9.654;2023-04-06T12:34:16;6.63;;;5.60;;
20884;SDS011;10602;48.000;9.654;2023-04-06T12:36:45;6.00;;;5.40;;
20884;SDS011;10602;48.000;9.654;2023-04-06T12:39:13;8.50;;;7.60;;
20884;SDS011;10602;48.000;9.654;2023-04-06T12:41:41;5.77;;;5.17;;
20884;SDS011;10602;48.000;9.654;2023-04-06T12:44:09;5.90;;;5.37;;
20884;SDS011;10602;48.000;9.654;2023-04-06T12:46:36;6.07;;;5.47;;
20884;SDS011;10602;48.000;9.654;2023-04-06T12:49:04;6.57;;;5.77;;
20884;SDS011;10602;48.000;9.654;2023-04-06T12:51:32;6.17;;;5.57;;
20884;SDS011;10602;48.000;9.654;2023-04-06T12:53:59;5.90;;;5.30;;
20884;SDS011;10602;48.000;9.654;2023-04-06T12:56:27;6.10;;;5.40;;
20884;SDS011;10602;48.000;9.654;2023-04-06T12:58:55;5.30;;;4.80;;
20884;SDS011;10602;48.000;9.654;2023-04-06T13:01:23;5.80;;;5.00;;
20884;SDS011;10602;48.000;9.654;2023-04-06T13:03:51;5.67;;;5.17;;
20884;SDS011;10602;48.000;9.654;2023-04-06T13:06:18;6.43;;;5.07;;
20884;SDS011;10602;48.000;9.654;2023-04-06T13:08:46;6.77;;;5.90;;
20884;SDS011;10602;48.000;9.654;2023-04-06T13:11:15;5.43;;;4.90;;
20884;SDS011;10602;48.000;9.654;2023-04-06T13:13:44;5.90;;;5.37;;
20884;SDS011;10602;48.000;9.654;2023-04-06T13:16:12;5.73;;;5.23;;
20884;SDS011;10602;48.000;9.654;2023-04-06T13:18:41;6.17;;;5.20;;
20884;SDS011;10602;48.000;9.654;2023-04-06T13:21:08;5.93;;;5.03;;
20884;SDS011;10602;48.000;9.654;2023-04-06T13:23:37;7.07;;;6.37;;
20884;SDS011;10602;48.000;9.654;2023-04-06T13:26:06;6.20;;;5.30;;
20884;SDS011;10602;48.000;9.654;2023-04-06T13:28:35;6.50;;;5.27;;
20884;SDS011;10602;48.000;9.654;2023-04-06T13:31:04;6.07;;;5.47;;
20884;SDS011;10602;48.000;9.654;2023-04-06T13:33:32;5.77;;;5.17;;
20884;SDS011;10602;48.000;9.654;2023-04-06T13:36:00;7.57;;;6.00;;
20884;SDS011;10602;48.000;9.654;2023-04-06T13:38:27;5.67;;;5.17;;
20884;SDS011;10602;48.000;9.654;2023-04-06T13:40:56;5.70;;;5.10;;
20884;SDS011;10602;48.000;9.654;2023-04-06T13:43:23;6.23;;;4.53;;
20884;SDS011;10602;48.000;9.654;2023-04-06T13:45:53;5.60;;;5.03;;
20884;SDS011;10602;48.000;9.654;2023-04-06T13:48:21;5.33;;;4.83;;
20884;SDS011;10602;48.000;9.654;2023-04-06T13:50:49;5.70;;;5.07;;
20884;SDS011;10602;48.000;9.654;2023-04-06T13:53:17;7.37;;;5.17;;
20884;SDS011;10602;48.000;9.654;2023-04-06T13:55:51;5.07;;;4.30;;
20884;SDS011;10602;48.000;9.654;2023-04-06T13:58:21;6.47;;;5.17;;
20884;SDS011;10602;48.000;9.654;2023-04-06T14:00:48;5.37;;;4.87;;
20884;SDS011;10602;48.000;9.654;2023-04-06T14:03:16;5.17;;;4.47;;
20884;SDS011;10602;48.000;9.654;2023-04-06T14:05:49;6.07;;;5.10;;
20884;SDS011;10602;48.000;9.654;2023-04-06T14:08:13;6.13;;;5.13;;
20884;SDS011;10602;48.000;9.654;2023-04-06T14:10:40;7.13;;;4.73;;
20884;SDS011;10602;48.000;9.654;2023-04-06T14:13:08;5.90;;;5.30;;
20884;SDS011;10602;48.000;9.654;2023-04-06T14:15:36;5.90;;;4.80;;
20884;SDS011;10602;48.000;9.654;2023-04-06T14:18:03;5.57;;;4.97;;
20884;SDS011;10602;48.000;9.654;2023-04-06T14:20:31;5.40;;;4.90;;
20884;SDS011;10602;48.000;9.654;2023-04-06T14:23:00;6.00;;;5.07;;
20884;SDS011;10602;48.000;9.654;2023-04-06T14:25:28;6.30;;;5.70;;
20884;SDS011;10602;48.000;9.654;2023-04-06T14:28:00;6.03;;;5.20;;
20884;SDS011;10602;48.000;9.654;2023-04-06T14:30:29;6.13;;;5.50;;
20884;SDS011;10602;48.000;9.654;2023-04-06T14:32:57;6.63;;;5.67;;
20884;SDS011;10602;48.000;9.654;2023-04-06T14:35:25;6.77;;;5.30;;
20884;SDS011;10602;48.000;9.654;2023-04-06T14:37:53;7.00;;;5.80;;
20884;SDS011;10602;48.000;9.654;2023-04-06T14:40:23;5.87;;;5.27;;
20884;SDS011;10602;48.000;9.654;2023-04-06T14:42:51;6.17;;;5.17;;
20884;SDS011;10602;48.000;9.654;2023-04-06T14:45:20;6.73;;;5.20;;
20884;SDS011;10602;48.000;9.654;2023-04-06T14:47:48;7.63;;;6.03;;
20884;SDS011;10602;48.000;9.654;2023-04-06T14:50:16;7.60;;;5.90;;
20884;SDS011;10602;48.000;9.654;2023-04-06T14:52:43;6.57;;;5.83;;
20884;SDS011;10602;48.000;9.654;2023-04-06T14:55:12;7.53;;;5.77;;
20884;SDS011;10602;48.000;9.654;2023-04-06T14:57:40;7.07;;;5.30;;
20884;SDS011;10602;48.000;9.654;2023-04-06T15:00:07;6.73;;;5.60;;
20884;SDS011;10602;48.000;9.654;2023-04-06T15:02:35;7.37;;;5.97;;
20884;SDS011;10602;48.000;9.654;2023-04-06T15:05:03;7.33;;;5.80;;
20884;SDS011;10602;48.000;9.654;2023-04-06T15:07:31;6.23;;;5.40;;
20884;SDS011;10602;48.000;9.654;2023-04-06T15:09:59;8.60;;;5.77;;
20884;SDS011;10602;48.000;9.654;2023-04-06T15:12:26;7.80;;;6.17;;
20884;SDS011;10602;48.000;9.654;2023-04-06T15:14:55;8.27;;;5.53;;
20884;SDS011;10602;48.000;9.654;2023-04-06T15:17:22;8.13;;;5.30;;
20884;SDS011;10602;48.000;9.654;2023-04-06T15:19:51;5.97;;;5.37;;
20884;SDS011;10602;48.000;9.654;2023-04-06T15:22:20;8.83;;;5.80;;